Time;durP1;ratioP1;P1;durP2;ratioP2;P2;SDS_P1;SDS_P2;PMS_P1;PMS_P2;Temp;Humidity;BMP_temperature;BMP_pressure;BME280_temperature;BME280_humidity;BME280_pressure;Samples;Min_cycle;Max_cycle;Signal;HPM_P1;HPM_P2
2022/12/09 00:00:33;;;;;;;49.50;26.98;;;;;;;9.68;100.00;100518.13;4999472;28;20066;-53
2022/12/09 00:02:58;;;;;;;46.70;24.33;;;;;;;9.69;100.00;100514.44;4997083;28;20034;-55
2022/12/09 00:05:24;;;;;;;50.20;24.83;;;;;;;9.63;100.00;100513.38;5002170;28;20284;-53
2022/12/09 00:07:49;;;;;;;39.53;19.87;;;;;;;9.27;100.00;100517.06;4987190;28;20046;-52
2022/12/09 00:10:15;;;;;;;55.80;24.40;;;;;;;10.45;100.00;100510.84;4984808;28;20098;-51
2022/12/09 00:12:41;;;;;;;48.23;25.73;;;;;;;10.64;100.00;100516.44;4995076;28;20035;-53
2022/12/09 00:15:06;;;;;;;50.53;24.17;;;;;;;10.46;100.00;100514.31;5004660;28;20050;-51
2022/12/09 00:17:32;;;;;;;58.42;27.77;;;;;;;10.45;100.00;100518.88;4999139;28;20049;-51
2022/12/09 00:19:58;;;;;;;56.73;26.20;;;;;;;9.73;100.00;100515.69;5001257;28;20034;-52
2022/12/09 00:22:26;;;;;;;49.70;26.17;;;;;;;9.54;100.00;100519.88;4998369;28;20042;-50
2022/12/09 00:24:51;;;;;;;56.25;27.38;;;;;;;9.64;100.00;100520.38;4996066;28;20035;-53
2022/12/09 00:27:16;;;;;;;57.10;25.67;;;;;;;9.82;100.00;100522.50;5001962;28;20034;-49
2022/12/09 00:29:42;;;;;;;64.32;29.85;;;;;;;9.84;100.00;100520.47;5006571;28;20122;-50
2022/12/09 00:32:08;;;;;;;58.60;28.00;;;;;;;9.82;100.00;100519.84;4999124;28;20038;-52
2022/12/09 00:34:34;;;;;;;62.67;30.58;;;;;;;9.88;100.00;100523.56;5018956;28;20049;-52
2022/12/09 00:36:59;;;;;;;60.95;29.55;;;;;;;10.03;100.00;100521.59;4999629;28;20073;-51
2022/12/09 00:39:25;;;;;;;54.97;28.00;;;;;;;9.90;100.00;100527.69;5001528;28;20041;-52
2022/12/09 00:41:50;;;;;;;45.90;22.17;;;;;;;9.89;100.00;100520.69;5020815;28;20034;-52
2022/12/09 00:44:17;;;;;;;;;;;;;;;9.84;100.00;100515.13;5017237;28;20038;-50
2022/12/09 00:46:43;;;;;;;53.03;25.63;;;;;;;9.90;100.00;100511.66;5000117;28;19933;-55
2022/12/09 00:49:09;;;;;;;60.00;28.70;;;;;;;9.79;100.00;100519.41;5006938;28;20216;-54
2022/12/09 00:51:35;;;;;;;56.88;27.42;;;;;;;9.87;100.00;100521.94;5016048;28;20124;-52
2022/12/09 00:54:00;;;;;;;57.83;28.13;;;;;;;9.66;100.00;100514.81;5013602;28;20034;-52
2022/12/09 00:56:28;;;;;;;54.38;27.02;;;;;;;9.53;100.00;100519.09;5015725;28;20103;-54
2022/12/09 00:58:55;;;;;;;64.75;28.95;;;;;;;9.32;100.00;100518.13;5012027;28;20099;-51
2022/12/09 01:01:21;;;;;;;63.33;28.77;;;;;;;9.24;100.00;100525.44;5007954;28;20098;-53
2022/12/09 01:03:46;;;;;;;62.70;30.45;;;;;;;9.30;100.00;100516.66;4993593;28;20041;-53
2022/12/09 01:06:21;;;;;;;66.38;31.42;;;;;;;9.20;100.00;100525.00;5023040;28;20030;-55
2022/12/09 01:08:47;;;;;;;70.68;32.45;;;;;;;9.96;100.00;100522.59;5023158;28;20034;-54
2022/12/09 01:11:18;;;;;;;74.85;31.80;;;;;;;9.71;100.00;100523.91;4999797;28;20038;-53
2022/12/09 01:13:44;;;;;;;65.30;30.67;;;;;;;9.73;100.00;100521.84;5019824;28;20033;-52
2022/12/09 01:16:31;;;;;;;60.40;29.80;;;;;;;9.82;100.00;100530.53;5021970;28;20034;-54
2022/12/09 01:18:59;;;;;;;55.20;28.83;;;;;;;9.51;100.00;100526.47;5016277;28;20029;-54
2022/12/09 01:21:26;;;;;;;65.53;29.45;;;;;;;9.73;100.00;100532.53;5004236;28;20034;-55
2022/12/09 01:23:52;;;;;;;55.75;28.08;;;;;;;10.19;100.00;100536.44;5004061;28;20044;-53
2022/12/09 01:26:18;;;;;;;56.03;29.00;;;;;;;9.80;100.00;100531.72;5020771;28;20030;-52
2022/12/09 01:28:44;;;;;;;59.40;28.20;;;;;;;9.91;100.00;100536.53;5018912;28;20061;-54
2022/12/09 01:31:12;;;;;;;;;;;;;;;9.69;100.00;100543.81;5015113;28;20034;-53
2022/12/09 01:33:39;;;;;;;60.50;27.55;;;;;;;9.77;100.00;100549.00;5014596;28;19913;-55
2022/12/09 01:36:07;;;;;;;64.07;28.73;;;;;;;9.95;100.00;100545.78;4998222;28;20485;-55
2022/12/09 01:38:32;;;;;;;63.38;28.90;;;;;;;10.10;100.00;100542.97;5014078;28;20085;-55
2022/12/09 01:40:58;;;;;;;71.05;28.02;;;;;;;9.90;100.00;100543.69;5014462;28;20183;-55
2022/12/09 01:43:24;;;;;;;56.67;28.73;;;;;;;10.07;100.00;100543.38;4997653;28;20054;-56
2022/12/09 01:45:50;;;;;;;64.10;28.42;;;;;;;10.13;100.00;100537.22;5013567;28;20034;-55
2022/12/09 01:48:19;;;;;;;55.60;26.50;;;;;;;9.95;100.00;100539.63;5013715;28;20034;-55
2022/12/09 01:51:13;;;;;;;67.30;29.30;;;;;;;9.88;100.00;100539.59;5014015;28;20045;-53
2022/12/09 01:53:43;;;;;;;53.33;27.30;;;;;;;9.76;100.00;100536.66;4995588;28;20061;-55
2022/12/09 01:56:21;;;;;;;63.25;30.10;;;;;;;9.71;100.00;100539.91;4997354;28;20037;-57
2022/12/09 01:58:47;;;;;;;63.70;27.38;;;;;;;9.66;100.00;100541.53;4995228;28;20031;-55
2022/12/09 02:01:16;;;;;;;60.00;28.33;;;;;;;9.66;100.00;100531.69;4996637;28;20065;-51
2022/12/09 02:03:41;;;;;;;64.80;29.02;;;;;;;9.64;100.00;100527.53;4996954;28;20042;-53
2022/12/09 02:06:07;;;;;;;62.85;27.35;;;;;;;9.47;100.00;100535.88;4997115;28;20030;-52
2022/12/09 02:08:33;;;;;;;65.83;29.50;;;;;;;9.40;100.00;100543.00;4996801;28;20061;-54
2022/12/09 02:11:21;;;;;;;60.60;26.33;;;;;;;9.34;100.00;100539.25;4996219;28;20118;-54
2022/12/09 02:14:12;;;;;;;62.05;28.88;;;;;;;9.50;100.00;100542.66;4985155;28;20061;-54
2022/12/09 02:16:50;;;;;;;63.08;28.17;;;;;;;9.57;100.00;100544.34;5011642;28;20032;-54
2022/12/09 02:19:38;;;;;;;71.20;29.83;;;;;;;9.73;100.00;100542.41;5013018;28;20030;-53
2022/12/09 02:22:06;;;;;;;56.85;26.05;;;;;;;9.66;100.00;100539.69;5012728;28;20038;-56
2022/12/09 02:24:44;;;;;;;58.15;27.27;;;;;;;9.60;100.00;100533.28;4996564;28;20050;-56
2022/12/09 02:27:29;;;;;;;65.22;29.95;;;;;;;9.63;100.00;100531.22;4995720;28;20054;-52
2022/12/09 02:30:10;;;;;;;68.00;28.38;;;;;;;9.24;100.00;100534.28;5012527;28;20047;-53
2022/12/09 02:32:57;;;;;;;69.45;29.90;;;;;;;9.24;100.00;100526.28;4996138;28;20030;-56
2022/12/09 02:35:56;;;;;;;69.82;31.40;;;;;;;9.15;100.00;100520.28;4996408;28;20031;-53
2022/12/09 02:38:30;;;;;;;73.13;32.70;;;;;;;9.29;100.00;100528.34;4997139;28;20077;-53
2022/12/09 02:41:04;;;;;;;69.55;30.80;;;;;;;9.61;100.00;100516.25;5009299;28;20037;-51
2022/12/09 02:43:37;;;;;;;75.13;33.15;;;;;;;9.46;100.00;100518.22;4996477;28;20058;-55
2022/12/09 02:46:08;;;;;;;66.40;30.13;;;;;;;9.08;100.00;100514.03;4994442;28;20042;-51
2022/12/09 02:48:44;;;;;;;72.03;31.27;;;;;;;9.17;100.00;100514.72;4995297;28;20070;-54
2022/12/09 02:51:15;;;;;;;73.60;33.13;;;;;;;9.07;100.00;100511.56;4996469;28;20026;-57
2022/12/09 02:53:43;;;;;;;72.85;31.58;;;;;;;8.89;100.00;100505.72;4994356;28;20034;-53
2022/12/09 02:56:11;;;;;;;73.45;30.83;;;;;;;9.76;100.00;100509.97;5012201;28;20030;-54
2022/12/09 02:58:38;;;;;;;80.60;32.72;;;;;;;8.74;100.00;100512.94;4996888;28;20027;-54
2022/12/09 03:01:05;;;;;;;74.72;32.50;;;;;;;9.16;100.00;100505.06;4996030;28;20030;-55
2022/12/09 03:03:32;;;;;;;;;;;;;;;9.27;100.00;100509.88;5013609;28;20050;-52
2022/12/09 03:06:06;;;;;;;80.82;33.97;;;;;;;9.11;100.00;100510.16;5012869;28;19913;-53
2022/12/09 03:08:42;;;;;;;83.78;33.78;;;;;;;8.64;100.00;100507.94;4995928;28;20044;-50
2022/12/09 03:11:10;;;;;;;74.75;33.13;;;;;;;8.16;100.00;100505.75;5012906;28;20038;-53
2022/12/09 03:13:52;;;;;;;78.35;33.88;;;;;;;8.73;100.00;100505.97;5012417;28;20074;-52
2022/12/09 03:16:30;;;;;;;79.57;34.45;;;;;;;8.64;100.00;100507.09;5012192;28;20034;-52
2022/12/09 03:19:02;;;;;;;76.70;34.30;;;;;;;9.39;100.00;100512.00;5011991;28;20027;-52
2022/12/09 03:21:31;;;;;;;73.78;33.75;;;;;;;8.89;100.00;100508.38;5011476;28;20052;-53
2022/12/09 03:23:59;;;;;;;73.10;33.13;;;;;;;9.66;100.00;100504.97;5012412;28;20046;-53
2022/12/09 03:26:28;;;;;;;74.20;31.50;;;;;;;9.32;100.00;100511.94;5013069;28;20034;-52
2022/12/09 03:28:57;;;;;;;70.72;31.80;;;;;;;9.37;100.00;100500.69;5012495;28;20026;-53
2022/12/09 03:31:27;;;;;;;79.43;34.40;;;;;;;9.95;100.00;100508.38;5012393;28;20042;-56
2022/12/09 03:33:57;;;;;;;71.80;32.80;;;;;;;9.15;100.00;100498.09;5012994;28;20034;-55
2022/12/09 03:36:26;;;;;;;65.18;32.35;;;;;;;8.87;100.00;100497.03;5011049;28;20053;-54
2022/12/09 03:38:53;;;;;;;72.88;31.85;;;;;;;8.66;100.00;100487.25;5012672;28;20091;-52
2022/12/09 03:41:31;;;;;;;73.30;33.97;;;;;;;7.93;100.00;100498.72;5012403;28;20098;-53
2022/12/09 03:44:21;;;;;;;74.13;32.90;;;;;;;9.02;100.00;100502.31;4996110;28;20034;-53
2022/12/09 03:46:47;;;;;;;68.68;30.52;;;;;;;8.72;100.00;100494.47;5011091;28;20068;-54
2022/12/09 03:49:13;;;;;;;72.15;33.13;;;;;;;9.23;100.00;100499.78;4996132;28;20057;-53
2022/12/09 03:51:55;;;;;;;68.88;30.40;;;;;;;8.67;100.00;100480.88;5012605;28;20058;-52
2022/12/09 03:54:41;;;;;;;69.78;30.38;;;;;;;8.84;100.00;100486.78;5010902;28;20039;-54
2022/12/09 03:57:10;;;;;;;69.90;32.78;;;;;;;9.16;100.00;100486.41;5010197;28;20038;-51
2022/12/09 03:59:36;;;;;;;71.07;30.33;;;;;;;8.63;100.00;100479.63;5012517;28;20030;-50
2022/12/09 04:02:05;;;;;;;74.28;32.42;;;;;;;9.27;100.00;100483.19;5011896;28;20064;-55
2022/12/09 04:04:32;;;;;;;72.93;29.60;;;;;;;9.54;100.00;100486.03;5013420;28;20034;-50
2022/12/09 04:06:58;;;;;;;70.05;29.63;;;;;;;9.37;100.00;100479.34;4995633;28;20098;-51
2022/12/09 04:09:24;;;;;;;77.43;30.08;;;;;;;9.46;100.00;100481.66;5015844;28;20030;-52
2022/12/09 04:11:51;;;;;;;62.40;29.45;;;;;;;8.38;100.00;100476.47;5015464;28;20130;-54
2022/12/09 04:14:17;;;;;;;68.60;31.27;;;;;;;8.45;100.00;100467.53;5013496;28;20030;-54
2022/12/09 04:16:43;;;;;;;70.33;30.27;;;;;;;8.28;100.00;100472.28;5015862;28;20053;-53
2022/12/09 04:19:08;;;;;;;64.63;29.90;;;;;;;8.58;100.00;100476.72;5016325;28;20290;-52
2022/12/09 04:21:34;;;;;;;73.37;31.50;;;;;;;8.45;100.00;100474.72;5015602;28;20038;-53
2022/12/09 04:23:59;;;;;;;63.67;28.47;;;;;;;8.53;100.00;100474.63;5013890;28;20053;-55
2022/12/09 04:26:25;;;;;;;56.23;24.57;;;;;;;9.40;100.00;100481.63;4999293;28;20260;-54
2022/12/09 04:28:50;;;;;;;63.13;27.30;;;;;;;8.83;100.00;100473.66;5015690;28;20106;-53
2022/12/09 04:31:17;;;;;;;67.15;29.40;;;;;;;8.85;100.00;100477.75;5016118;28;20097;-55
2022/12/09 04:33:43;;;;;;;80.38;33.78;;;;;;;8.91;100.00;100478.03;5016431;28;20041;-53
2022/12/09 04:36:13;;;;;;;64.38;27.98;;;;;;;8.17;100.00;100473.63;5016266;28;20026;-55
2022/12/09 04:38:40;;;;;;;69.57;29.33;;;;;;;8.11;100.00;100471.72;5014332;28;20026;-53
2022/12/09 04:41:05;;;;;;;66.90;29.30;;;;;;;8.07;100.00;100470.41;5015338;28;20038;-52
2022/12/09 04:43:31;;;;;;;79.63;29.13;;;;;;;7.86;100.00;100477.38;5016082;28;20336;-54
2022/12/09 04:46:02;;;;;;;70.13;28.42;;;;;;;8.00;100.00;100475.69;5015548;28;20142;-55
2022/12/09 04:48:28;;;;;;;70.63;27.38;;;;;;;7.99;100.00;100474.03;5014062;28;20038;-55
2022/12/09 04:50:54;;;;;;;67.00;27.33;;;;;;;7.75;100.00;100472.50;5013786;28;20030;-51
2022/12/09 04:53:20;;;;;;;70.60;28.67;;;;;;;8.13;100.00;100472.34;5016076;28;20093;-53
2022/12/09 04:55:46;;;;;;;65.65;27.83;;;;;;;7.96;100.00;100478.91;5015405;28;20061;-52
2022/12/09 04:58:11;;;;;;;65.27;28.60;;;;;;;7.54;100.00;100473.28;5015967;28;20034;-52
2022/12/09 05:00:37;;;;;;;73.85;27.40;;;;;;;7.84;100.00;100479.41;5015452;28;20117;-53
2022/12/09 05:03:02;;;;;;;73.23;28.53;;;;;;;7.84;100.00;100476.75;5015139;28;20089;-58
2022/12/09 05:05:28;;;;;;;57.10;22.40;;;;;;;7.13;100.00;100475.34;5015576;28;20038;-55
2022/12/09 05:07:53;;;;;;;76.35;29.40;;;;;;;7.52;100.00;100481.44;4998526;28;20090;-53
2022/12/09 05:10:19;;;;;;;69.17;27.73;;;;;;;6.99;100.00;100471.69;5015039;28;20049;-54
2022/12/09 05:12:44;;;;;;;63.93;29.23;;;;;;;6.81;100.00;100471.16;5015258;28;20038;-48
2022/12/09 05:15:10;;;;;;;54.27;21.73;;;;;;;6.49;100.00;100468.59;5014826;28;20034;-49
2022/12/09 05:17:36;;;;;;;70.80;29.23;;;;;;;6.46;100.00;100466.28;5015120;28;20062;-53
2022/12/09 05:20:02;;;;;;;69.90;27.83;;;;;;;6.89;100.00;100471.09;5014301;28;20058;-55
2022/12/09 05:22:28;;;;;;;70.78;28.80;;;;;;;6.72;100.00;100471.25;5014768;28;20038;-48
2022/12/09 05:24:53;;;;;;;72.75;26.65;;;;;;;6.66;100.00;100468.47;5015305;28;20049;-53
2022/12/09 05:27:20;;;;;;;75.30;27.87;;;;;;;6.77;100.00;100468.03;5015033;28;20094;-50
2022/12/09 05:29:45;;;;;;;77.85;30.05;;;;;;;6.67;100.00;100464.81;5012541;28;20295;-50
2022/12/09 05:32:10;;;;;;;82.75;30.23;;;;;;;6.60;100.00;100465.53;5015053;28;20090;-54
2022/12/09 05:34:37;;;;;;;75.13;29.83;;;;;;;6.55;100.00;100465.22;4997544;28;20057;-52
2022/12/09 05:37:02;;;;;;;82.70;31.92;;;;;;;6.71;100.00;100464.28;5015106;28;20094;-52
2022/12/09 05:39:28;;;;;;;77.30;30.87;;;;;;;6.57;100.00;100457.91;4997428;28;20035;-50
2022/12/09 05:41:53;;;;;;;62.97;27.02;;;;;;;7.24;100.00;100462.59;5014653;28;20037;-52
2022/12/09 05:44:19;;;;;;;59.30;25.37;;;;;;;6.64;100.00;100462.50;5014371;28;20066;-50
2022/12/09 05:46:44;;;;;;;98.23;32.43;;;;;;;6.64;100.00;100458.00;5014560;28;20058;-53
2022/12/09 05:49:10;;;;;;;90.03;34.13;;;;;;;6.89;100.00;100463.09;4997167;28;20291;-50
2022/12/09 05:51:35;;;;;;;88.07;33.93;;;;;;;7.17;100.00;100470.50;5014609;28;20133;-55
2022/12/09 05:54:03;;;;;;;101.13;34.50;;;;;;;7.05;100.00;100467.47;5013741;28;20042;-53
2022/12/09 05:56:29;;;;;;;83.30;35.15;;;;;;;7.70;100.00;100474.91;5012714;28;20033;-53
2022/12/09 05:58:54;;;;;;;80.40;35.30;;;;;;;7.62;100.00;100472.34;5014182;28;20061;-51
2022/12/09 06:01:21;;;;;;;87.38;32.20;;;;;;;7.86;100.00;100480.03;5014604;28;20037;-53
2022/12/09 06:03:48;;;;;;;88.72;30.88;;;;;;;7.67;100.00;100472.63;5011958;28;20038;-55
2022/12/09 06:06:16;;;;;;;83.95;30.20;;;;;;;7.57;100.00;100479.03;5014235;28;20041;-51
2022/12/09 06:08:42;;;;;;;84.43;30.00;;;;;;;7.28;100.00;100480.69;5012046;28;20045;-53
2022/12/09 06:11:12;;;;;;;89.80;31.20;;;;;;;6.96;100.00;100468.53;5014495;28;20057;-54
2022/12/09 06:13:37;;;;;;;89.72;32.10;;;;;;;7.58;100.00;100472.69;5012394;28;20031;-55
2022/12/09 06:16:04;;;;;;;95.83;34.33;;;;;;;7.52;100.00;100472.63;5014128;28;20215;-53
2022/12/09 06:18:30;;;;;;;91.97;32.55;;;;;;;7.49;100.00;100467.66;5013695;28;20276;-51
2022/12/09 06:20:56;;;;;;;75.43;30.23;;;;;;;8.41;100.00;100471.59;5013941;28;20034;-55
2022/12/09 06:23:22;;;;;;;82.40;32.00;;;;;;;7.38;100.00;100475.09;5013066;28;20074;-53
2022/12/09 06:25:47;;;;;;;80.23;31.40;;;;;;;7.26;100.00;100476.53;5013644;28;20037;-51
2022/12/09 06:28:13;;;;;;;81.82;29.33;;;;;;;8.07;100.00;100478.41;5013334;28;20094;-51
2022/12/09 06:30:39;;;;;;;78.65;29.05;;;;;;;7.78;100.00;100487.28;5000381;28;20053;-51
2022/12/09 06:33:05;;;;;;;58.55;23.25;;;;;;;7.88;100.00;100488.66;5001036;28;20058;-50
2022/12/09 06:35:30;;;;;;;74.33;31.07;;;;;;;7.64;100.00;100480.97;4999640;28;20065;-53
2022/12/09 06:37:56;;;;;;;75.45;30.13;;;;;;;7.49;100.00;100478.28;4997753;28;20019;-54
2022/12/09 06:40:22;;;;;;;70.50;27.07;;;;;;;7.68;100.00;100474.28;4999974;28;20046;-53
2022/12/09 06:42:50;;;;;;;64.07;23.13;;;;;;;7.74;100.00;100479.69;5001486;28;20276;-49
2022/12/09 06:45:18;;;;;;;74.22;28.38;;;;;;;7.62;100.00;100477.69;4999848;28;20042;-54
2022/12/09 06:47:43;;;;;;;79.47;29.25;;;;;;;7.80;100.00;100480.75;4998151;28;20046;-52
2022/12/09 06:50:11;;;;;;;80.10;29.15;;;;;;;7.72;100.00;100486.19;4996612;28;20046;-51
2022/12/09 06:52:38;;;;;;;78.85;29.52;;;;;;;7.78;100.00;100484.63;4998683;28;20034;-54
2022/12/09 06:55:04;;;;;;;57.10;22.00;;;;;;;7.85;100.00;100485.53;4999178;28;20086;-52
2022/12/09 06:57:30;;;;;;;73.28;29.48;;;;;;;8.41;100.00;100484.94;5001322;28;20041;-53
2022/12/09 06:59:56;;;;;;;75.38;29.38;;;;;;;7.86;100.00;100479.19;5001720;28;20026;-55
2022/12/09 07:02:21;;;;;;;77.20;29.77;;;;;;;8.10;100.00;100480.72;4984016;28;20103;-53
2022/12/09 07:04:54;;;;;;;70.57;28.63;;;;;;;7.47;100.00;100481.16;5001074;28;20050;-52
2022/12/09 07:07:20;;;;;;;75.25;30.05;;;;;;;7.53;100.00;100479.59;4999637;28;20042;-51
2022/12/09 07:09:46;;;;;;;71.28;29.90;;;;;;;7.71;100.00;100487.19;5001194;28;20045;-54
2022/12/09 07:12:12;;;;;;;74.38;28.88;;;;;;;7.63;100.00;100482.00;4998442;28;20035;-50
2022/12/09 07:14:37;;;;;;;79.10;26.63;;;;;;;7.44;100.00;100481.53;5001280;28;20030;-49
2022/12/09 07:17:03;;;;;;;64.72;26.35;;;;;;;7.26;100.00;100479.22;4999827;28;20054;-50
2022/12/09 07:19:29;;;;;;;74.43;26.70;;;;;;;7.06;100.00;100484.25;5001981;28;20062;-52
2022/12/09 07:21:56;;;;;;;79.80;29.15;;;;;;;7.09;100.00;100486.53;4996942;28;20039;-49
2022/12/09 07:24:22;;;;;;;74.38;29.98;;;;;;;6.89;100.00;100487.03;5001709;28;20027;-55
2022/12/09 07:26:48;;;;;;;74.18;27.88;;;;;;;7.20;100.00;100491.44;4996955;28;20034;-51
2022/12/09 07:29:15;;;;;;;67.28;27.85;;;;;;;6.68;100.00;100491.19;4999015;28;20050;-50
2022/12/09 07:31:40;;;;;;;75.78;28.10;;;;;;;6.78;100.00;100487.47;5013235;28;20062;-52
2022/12/09 07:34:06;;;;;;;72.10;28.77;;;;;;;6.64;100.00;100492.56;5013005;28;20035;-54
2022/12/09 07:36:34;;;;;;;76.13;29.55;;;;;;;6.62;100.00;100494.56;5012896;28;20026;-53
2022/12/09 07:39:06;;;;;;;79.32;28.15;;;;;;;6.39;100.00;100490.06;5013986;28;20049;-52
2022/12/09 07:41:32;;;;;;;82.70;30.08;;;;;;;6.40;100.00;100491.72;5016858;28;20026;-50
2022/12/09 07:43:57;;;;;;;88.88;31.05;;;;;;;6.28;100.00;100501.13;5016241;28;20026;-55
2022/12/09 07:46:26;;;;;;;76.50;29.77;;;;;;;6.17;100.00;100495.19;5016577;28;20034;-52
2022/12/09 07:48:51;;;;;;;80.13;29.08;;;;;;;6.13;100.00;100496.53;5016666;28;20038;-54
2022/12/09 07:51:17;;;;;;;76.85;29.20;;;;;;;6.15;100.00;100496.38;5016439;28;20041;-50
2022/12/09 07:53:42;;;;;;;82.00;31.87;;;;;;;6.23;100.00;100506.94;5016701;28;20030;-52
2022/12/09 07:56:10;;;;;;;79.90;30.53;;;;;;;6.66;100.00;100501.16;5016135;28;20034;-56
2022/12/09 07:58:37;;;;;;;82.13;32.63;;;;;;;6.85;100.00;100501.69;5014906;28;20319;-52
2022/12/09 08:01:24;;;;;;;84.68;31.83;;;;;;;6.59;100.00;100509.06;5016261;28;20061;-53
2022/12/09 08:03:50;;;;;;;;;;;;;;;6.59;100.00;100501.09;5015214;28;20030;-54
2022/12/09 08:06:20;;;;;;;90.23;32.57;;;;;;;6.82;100.00;100500.25;5016393;28;19960;-52
2022/12/09 08:08:47;;;;;;;101.95;33.78;;;;;;;7.07;100.00;100509.81;5016124;28;20065;-51
2022/12/09 08:11:18;;;;;;;88.95;31.13;;;;;;;7.11;100.00;100503.13;5015931;28;20038;-55
2022/12/09 08:13:44;;;;;;;82.65;31.23;;;;;;;6.99;100.00;100506.25;5014607;28;20042;-53
2022/12/09 08:16:13;;;;;;;86.60;30.98;;;;;;;7.07;100.00;100512.47;5014874;28;20101;-50
2022/12/09 08:18:40;;;;;;;80.32;30.65;;;;;;;7.47;100.00;100513.91;5014411;28;20030;-55
2022/12/09 08:21:09;;;;;;;82.40;30.45;;;;;;;7.55;100.00;100510.31;5013625;28;20045;-52
2022/12/09 08:23:36;;;;;;;73.20;26.35;;;;;;;7.52;100.00;100505.38;5014977;28;20034;-53
2022/12/09 08:26:03;;;;;;;84.22;28.33;;;;;;;7.32;100.00;100511.22;5015880;28;20039;-55
2022/12/09 08:28:28;;;;;;;85.05;27.98;;;;;;;7.50;100.00;100510.06;4997440;28;20042;-53
2022/12/09 08:30:54;;;;;;;81.82;29.55;;;;;;;7.58;100.00;100515.28;5015642;28;20054;-55
2022/12/09 08:33:20;;;;;;;;;;;;;;;7.15;100.00;100510.56;5016193;28;20038;-54
2022/12/09 08:35:46;;;;;;;77.37;28.10;;;;;;;7.53;100.00;100511.53;5013105;28;19914;-53
2022/12/09 08:38:12;;;;;;;85.60;30.63;;;;;;;7.63;100.00;100509.41;5015553;28;20053;-54
2022/12/09 08:40:38;;;;;;;73.37;26.97;;;;;;;7.64;100.00;100507.59;5015186;28;20031;-49
2022/12/09 08:43:05;;;;;;;72.78;27.17;;;;;;;7.60;100.00;100507.13;4998203;28;20173;-53
2022/12/09 08:45:38;;;;;;;70.88;27.58;;;;;;;7.92;100.00;100509.59;5015523;28;20038;-55
2022/12/09 08:48:05;;;;;;;70.95;25.15;;;;;;;8.01;100.00;100511.97;5011278;28;20037;-53
2022/12/09 08:50:31;;;;;;;;;;;;;;;7.96;100.00;100516.19;5015099;28;20046;-52
2022/12/09 08:52:57;;;;;;;58.40;22.95;;;;;;;8.38;100.00;100514.63;5015197;28;19921;-56
2022/12/09 08:55:22;;;;;;;69.13;27.25;;;;;;;8.10;100.00;100514.50;5015889;28;20042;-53
2022/12/09 08:57:49;;;;;;;64.57;22.83;;;;;;;8.21;100.00;100513.19;5014903;28;20042;-51
2022/12/09 09:00:15;;;;;;;60.63;24.13;;;;;;;7.41;100.00;100516.50;5013061;28;20026;-52
2022/12/09 09:02:41;;;;;;;62.08;24.88;;;;;;;8.10;100.00;100518.00;4998188;28;20084;-54
2022/12/09 09:05:06;;;;;;;76.60;28.17;;;;;;;7.99;100.00;100515.81;5015159;28;20034;-51
2022/12/09 09:07:32;;;;;;;71.30;28.33;;;;;;;7.81;100.00;100514.34;5014947;28;20077;-54
2022/12/09 09:09:59;;;;;;;72.20;27.23;;;;;;;8.68;100.00;100524.38;5014928;28;20303;-54
2022/12/09 09:12:25;;;;;;;71.72;28.13;;;;;;;7.94;100.00;100523.53;5014740;28;20045;-55
2022/12/09 09:14:53;;;;;;;72.18;28.42;;;;;;;7.51;100.00;100518.88;5015138;28;20053;-50
2022/12/09 09:17:19;;;;;;;68.63;27.60;;;;;;;8.24;100.00;100528.78;5014894;28;20037;-52
2022/12/09 09:19:45;;;;;;;65.88;25.52;;;;;;;8.17;100.00;100529.56;5014943;28;20058;-55
2022/12/09 09:22:11;;;;;;;61.77;25.30;;;;;;;8.06;100.00;100527.34;5014472;28;20034;-52
2022/12/09 09:24:36;;;;;;;76.03;28.40;;;;;;;8.11;100.00;100524.16;5014595;28;20030;-52
2022/12/09 09:27:02;;;;;;;62.93;26.40;;;;;;;8.17;100.00;100532.22;4997103;28;20034;-52
2022/12/09 09:29:27;;;;;;;59.63;23.33;;;;;;;9.30;100.00;100541.50;4993528;28;20070;-54
2022/12/09 09:31:53;;;;;;;51.70;18.95;;;;;;;10.23;100.00;100541.38;4990085;28;20038;-55
2022/12/09 09:34:20;;;;;;;50.80;19.87;;;;;;;10.84;100.00;100537.00;4987833;28;20063;-52
2022/12/09 09:36:47;;;;;;;39.92;17.38;;;;;;;11.07;100.00;100541.13;4989625;28;20050;-52
2022/12/09 09:39:12;;;;;;;46.42;18.05;;;;;;;11.08;100.00;100542.81;4984989;28;20034;-51
2022/12/09 09:41:54;;;;;;;45.03;18.20;;;;;;;12.09;100.00;100538.06;4994162;28;20035;-51
2022/12/09 09:44:29;;;;;;;48.15;20.38;;;;;;;13.45;100.00;100539.63;4987123;28;20038;-57
2022/12/09 09:46:56;;;;;;;43.57;19.80;;;;;;;13.09;100.00;100540.34;4989415;28;20110;-49
2022/12/09 09:49:35;;;;;;;43.93;19.30;;;;;;;13.19;100.00;100546.03;4988945;28;20292;-54
2022/12/09 09:52:07;;;;;;;40.80;18.70;;;;;;;13.82;94.65;100557.63;4990471;28;20267;-54
2022/12/09 09:54:32;;;;;;;41.43;19.10;;;;;;;14.65;88.85;100546.44;4989412;28;20276;-52
2022/12/09 09:57:53;;;;;;;44.60;19.70;;;;;;;15.43;79.70;100548.31;4992556;28;20284;-55
2022/12/09 10:00:20;;;;;;;41.33;19.60;;;;;;;13.47;91.21;100539.41;4935126;29;20046;-54
2022/12/09 10:02:52;;;;;;;34.97;17.90;;;;;;;13.82;90.71;100543.38;4981463;28;20344;-55
2022/12/09 10:05:24;;;;;;;34.97;17.27;;;;;;;13.41;93.33;100534.91;4986604;28;20309;-52
2022/12/09 10:08:00;;;;;;;40.40;20.00;;;;;;;13.12;95.83;100539.88;4991944;28;20284;-51
2022/12/09 10:10:49;;;;;;;43.47;20.23;;;;;;;14.05;94.69;100545.38;4986221;28;20274;-55
2022/12/09 10:13:42;;;;;;;44.57;18.30;;;;;;;14.75;88.19;100546.72;4992013;28;20059;-52
2022/12/09 10:16:12;;;;;;;41.27;18.83;;;;;;;15.69;78.07;100543.50;4986733;28;20265;-58
2022/12/09 10:19:00;;;;;;;41.47;19.33;;;;;;;16.31;73.99;100542.06;4990353;28;20272;-54
2022/12/09 10:21:27;;;;;;;40.13;18.83;;;;;;;16.11;80.61;100547.88;4992256;28;20377;-54
2022/12/09 10:23:54;;;;;;;42.80;19.47;;;;;;;16.39;73.88;100551.66;4987789;28;20288;-53
2022/12/09 10:26:29;;;;;;;37.27;18.90;;;;;;;14.38;83.97;100544.13;4991115;28;20323;-53
2022/12/09 10:29:09;;;;;;;45.00;19.60;;;;;;;13.87;91.91;100547.03;4993823;28;20312;-52
2022/12/09 10:31:35;;;;;;;42.97;19.27;;;;;;;15.01;83.88;100539.31;5009896;28;20291;-53
2022/12/09 10:34:00;;;;;;;40.03;19.80;;;;;;;16.01;77.02;100541.22;5008718;28;20284;-52
2022/12/09 10:36:28;;;;;;;34.27;17.63;;;;;;;16.53;71.67;100544.91;5008019;28;20065;-52
2022/12/09 10:38:54;;;;;;;34.77;17.00;;;;;;;16.28;72.74;100534.44;5005504;28;20078;-54
2022/12/09 10:43:33;;;;;;;34.80;17.40;;;;;;;16.11;73.72;100529.00;5005260;28;20291;-55
2022/12/09 10:44:23;;;;;;;33.93;17.57;;;;;;;16.22;72.64;100530.81;5011217;28;20097;-51
2022/12/09 10:46:57;;;;;;;34.10;16.93;;;;;;;14.97;76.64;100530.03;5006612;28;20380;-54
2022/12/09 10:49:22;;;;;;;36.93;18.13;;;;;;;15.42;84.81;100522.41;5004350;28;20279;-52
2022/12/09 10:51:50;;;;;;;39.60;19.07;;;;;;;16.25;70.32;100529.53;5007960;28;20291;-52
2022/12/09 10:54:22;;;;;;;35.33;19.30;;;;;;;15.60;73.68;100524.97;5003999;28;20280;-52
2022/12/09 10:57:14;;;;;;;39.00;18.70;;;;;;;14.66;79.32;100531.94;5011983;28;20276;-52
2022/12/09 10:59:56;;;;;;;37.70;17.30;;;;;;;15.28;75.84;100528.06;5011509;28;20279;-51
2022/12/09 11:02:21;;;;;;;36.07;18.03;;;;;;;15.81;76.31;100521.91;5012299;28;20268;-51
2022/12/09 11:04:47;;;;;;;38.05;19.05;;;;;;;15.04;76.02;100516.44;5011705;28;20363;-52
2022/12/09 11:07:24;;;;;;;37.70;19.48;;;;;;;16.49;75.06;100514.03;4995658;28;20030;-52
2022/12/09 11:10:01;;;;;;;;;;;;;;;16.99;66.22;100512.47;5012850;28;20107;-56
2022/12/09 11:12:27;;;;;;;42.27;17.60;;;;;;;17.54;66.64;100522.72;5011891;28;19918;-55
2022/12/09 11:14:58;;;;;;;37.30;18.55;;;;;;;17.74;64.81;100522.16;5011473;28;20101;-52
2022/12/09 11:17:26;;;;;;;37.77;19.53;;;;;;;17.38;63.93;100530.59;5012021;28;20045;-53
2022/12/09 11:19:55;;;;;;;32.90;17.10;;;;;;;17.45;61.48;100525.03;5011292;28;20034;-55